Time;durP1;ratioP1;P1;durP2;ratioP2;P2;SDS_P1;SDS_P2;PMS_P1;PMS_P2;Temp;Humidity;BMP_temperature;BMP_pressure;BME280_temperature;BME280_humidity;BME280_pressure;Samples;Min_cycle;Max_cycle;Signal;HPM_P1;HPM_P2
2021/04/01 00:00:33;;;;;;;16.10;14.70;;;23.40;99.10;;;;;;3604651;39;20459;-35
2021/04/01 00:03:01;;;;;;;16.03;14.63;;;23.40;99.10;;;;;;3602547;39;20565;-35
2021/04/01 00:05:30;;;;;;;15.50;14.50;;;23.30;99.00;;;;;;3604537;39;20518;-35
2021/04/01 00:07:57;;;;;;;15.73;14.50;;;23.40;99.00;;;;;;3604080;39;20681;-35
2021/04/01 00:10:27;;;;;;;15.77;14.60;;;23.40;99.00;;;;;;3604445;39;20463;-35
2021/04/01 00:13:03;;;;;;;16.80;15.50;;;23.40;99.00;;;;;;3604338;39;20653;-34
2021/04/01 00:15:30;;;;;;;16.60;15.20;;;23.40;99.00;;;;;;3603598;39;20666;-35
2021/04/01 00:17:56;;;;;;;15.77;14.37;;;23.40;99.00;;;;;;3604254;39;20490;-35
2021/04/01 00:20:23;;;;;;;15.80;14.40;;;23.30;98.90;;;;;;3604732;39;20976;-34
2021/04/01 00:22:50;;;;;;;16.57;15.37;;;23.40;99.00;;;;;;3603979;39;20498;-35
2021/04/01 00:25:19;;;;;;;14.77;13.80;;;23.40;98.90;;;;;;3603874;39;20514;-35
2021/04/01 00:27:46;;;;;;;16.00;14.90;;;23.40;98.90;;;;;;3603861;39;20452;-35
2021/04/01 00:30:13;;;;;;;15.83;14.63;;;23.40;98.90;;;;;;3603284;39;20539;-35
2021/04/01 00:32:40;;;;;;;15.27;14.27;;;23.40;98.90;;;;;;3603856;39;20489;-35
2021/04/01 00:35:08;;;;;;;16.10;14.90;;;23.40;98.90;;;;;;3602824;39;20464;-35
2021/04/01 00:37:34;;;;;;;16.07;14.57;;;23.40;98.90;;;;;;3601714;39;20696;-34
2021/04/01 00:40:02;;;;;;;16.20;14.90;;;23.40;98.80;;;;;;3603872;39;20444;-35
2021/04/01 00:42:29;;;;;;;15.07;13.93;;;23.40;98.90;;;;;;3604578;39;21063;-35
2021/04/01 00:45:00;;;;;;;15.70;14.70;;;23.40;98.80;;;;;;3602964;39;20468;-34
2021/04/01 00:47:34;;;;;;;17.20;15.70;;;23.30;98.80;;;;;;3602772;39;20685;-35
2021/04/01 00:50:00;;;;;;;14.70;13.57;;;23.40;98.80;;;;;;3604553;39;20505;-35
2021/04/01 00:52:27;;;;;;;15.40;14.30;;;23.40;98.80;;;;;;3603380;39;20466;-35
2021/04/01 00:54:54;;;;;;;16.53;15.13;;;23.40;98.80;;;;;;3602402;39;20469;-35
2021/04/01 00:57:21;;;;;;;16.73;15.33;;;23.40;98.80;;;;;;3603749;39;20488;-35
2021/04/01 00:59:47;;;;;;;15.33;14.20;;;23.40;98.80;;;;;;3604407;39;20472;-34
2021/04/01 01:02:14;;;;;;;15.73;14.43;;;23.30;98.70;;;;;;3603408;39;20474;-35
2021/04/01 01:04:41;;;;;;;15.53;14.33;;;23.40;98.80;;;;;;3603711;39;20849;-35
2021/04/01 01:07:08;;;;;;;15.37;14.17;;;23.40;98.80;;;;;;3603229;39;20458;-35
2021/04/01 01:09:34;;;;;;;17.60;16.13;;;23.40;98.70;;;;;;3604616;39;20451;-35
2021/04/01 01:12:01;;;;;;;16.43;15.33;;;23.40;98.70;;;;;;3604031;39;20476;-35
2021/04/01 01:14:28;;;;;;;15.50;14.33;;;23.40;98.70;;;;;;3602139;39;20501;-35
2021/04/01 01:16:55;;;;;;;15.70;14.50;;;23.40;98.70;;;;;;3603888;39;21083;-34
2021/04/01 01:19:21;;;;;;;15.90;14.60;;;23.40;98.70;;;;;;3602921;39;20498;-35
2021/04/01 01:21:48;;;;;;;16.43;15.07;;;23.40;98.70;;;;;;3602932;39;20478;-34
2021/04/01 01:24:17;;;;;;;15.37;14.40;;;23.40;98.60;;;;;;3602846;39;20931;-35
2021/04/01 01:26:46;;;;;;;16.20;14.93;;;23.40;98.60;;;;;;3603312;39;20834;-35
2021/04/01 01:29:13;;;;;;;15.43;14.43;;;23.40;98.60;;;;;;3602844;39;20456;-34
2021/04/01 01:31:44;;;;;;;15.93;14.60;;;23.40;98.60;;;;;;3603494;39;20673;-35
2021/04/01 01:34:11;;;;;;;15.77;14.50;;;23.40;98.60;;;;;;3602892;39;20482;-34
2021/04/01 01:36:38;;;;;;;16.03;14.90;;;23.40;98.60;;;;;;3603989;39;21075;-35
2021/04/01 01:39:05;;;;;;;14.87;13.60;;;23.40;98.60;;;;;;3602856;39;20515;-35
2021/04/01 01:41:33;;;;;;;15.90;14.73;;;23.40;98.50;;;;;;3603271;39;20573;-35
2021/04/01 01:44:01;;;;;;;14.77;13.87;;;23.40;98.50;;;;;;3603561;39;20545;-35
2021/04/01 01:46:28;;;;;;;16.37;14.97;;;23.40;98.50;;;;;;3603558;39;20467;-35
2021/04/01 01:48:56;;;;;;;16.60;15.40;;;23.40;98.50;;;;;;3603602;39;20464;-35
2021/04/01 01:51:22;;;;;;;15.37;14.37;;;23.40;98.50;;;;;;3603600;39;20469;-34
2021/04/01 01:53:49;;;;;;;16.10;14.90;;;23.40;98.50;;;;;;3603907;39;20562;-35
2021/04/01 01:56:19;;;;;;;16.77;15.57;;;23.40;98.50;;;;;;3604064;39;20605;-35
2021/04/01 01:58:47;;;;;;;15.50;14.47;;;23.40;98.50;;;;;;3603072;39;20448;-35
2021/04/01 02:01:15;;;;;;;15.60;14.60;;;23.40;98.40;;;;;;3602759;39;20568;-35
2021/04/01 02:03:41;;;;;;;16.33;15.23;;;23.40;98.40;;;;;;3601544;39;20476;-34
2021/04/01 02:06:11;;;;;;;15.63;14.43;;;23.40;98.40;;;;;;3602696;39;20456;-35
2021/04/01 02:08:37;;;;;;;16.90;15.33;;;23.40;98.40;;;;;;3602845;39;20461;-35
2021/04/01 02:11:03;;;;;;;15.97;14.73;;;23.40;98.40;;;;;;3603322;39;20483;-35
2021/04/01 02:13:30;;;;;;;15.57;14.57;;;23.40;98.40;;;;;;3603636;39;20451;-35
2021/04/01 02:15:58;;;;;;;16.00;15.00;;;23.50;98.40;;;;;;3602353;39;20684;-35
2021/04/01 02:18:26;;;;;;;16.87;15.60;;;23.50;98.40;;;;;;3601999;39;20600;-35
2021/04/01 02:20:55;;;;;;;16.13;15.03;;;23.50;98.40;;;;;;3602631;39;20481;-35
2021/04/01 02:23:23;;;;;;;16.63;15.43;;;23.50;98.40;;;;;;3603166;39;20460;-35
2021/04/01 02:25:51;;;;;;;16.70;15.50;;;23.50;98.30;;;;;;3603257;39;20559;-35
2021/04/01 02:28:19;;;;;;;16.13;15.03;;;23.50;98.30;;;;;;3603236;39;20465;-35
2021/04/01 02:30:48;;;;;;;15.87;14.83;;;23.50;98.30;;;;;;3603215;39;20568;-35
2021/04/01 02:33:16;;;;;;;15.80;14.80;;;23.50;98.30;;;;;;3601373;39;20449;-35
2021/04/01 02:35:43;;;;;;;17.33;16.13;;;23.50;98.30;;;;;;3600898;39;20580;-35
2021/04/01 02:38:09;;;;;;;15.50;14.53;;;23.50;98.30;;;;;;3601893;39;20502;-35
2021/04/01 02:40:37;;;;;;;16.17;15.13;;;23.50;98.30;;;;;;3601819;39;20553;-35
2021/04/01 02:43:05;;;;;;;15.30;14.23;;;23.50;98.20;;;;;;3603972;39;20660;-35
2021/04/01 02:45:32;;;;;;;16.97;15.77;;;23.50;98.20;;;;;;3603556;39;20487;-34
2021/04/01 02:47:59;;;;;;;16.40;15.30;;;23.50;98.20;;;;;;3602699;39;20822;-35
2021/04/01 02:50:27;;;;;;;16.57;15.17;;;23.50;98.20;;;;;;3603507;39;20558;-35
2021/04/01 02:52:53;;;;;;;15.67;14.57;;;23.50;98.20;;;;;;3603040;39;20496;-35
2021/04/01 02:55:20;;;;;;;15.23;14.30;;;23.50;98.20;;;;;;3602526;39;20487;-35
2021/04/01 02:57:47;;;;;;;15.80;14.80;;;23.50;98.10;;;;;;3602589;39;20471;-35
2021/04/01 03:00:18;;;;;;;17.00;15.70;;;23.50;98.10;;;;;;3602609;39;20448;-35
2021/04/01 03:02:49;;;;;;;16.47;15.30;;;23.50;98.10;;;;;;3602401;39;20459;-35
2021/04/01 03:05:16;;;;;;;17.90;16.60;;;23.50;98.10;;;;;;3602915;39;20445;-35
2021/04/01 03:07:43;;;;;;;16.37;15.37;;;23.50;98.10;;;;;;3601641;39;20446;-35
2021/04/01 03:10:12;;;;;;;16.13;15.13;;;23.50;98.10;;;;;;3602535;39;20441;-35
2021/04/01 03:12:40;;;;;;;15.47;14.47;;;23.50;98.10;;;;;;3601326;39;20468;-35
2021/04/01 03:15:09;;;;;;;15.67;14.77;;;23.50;98.00;;;;;;3602336;39;20733;-35
2021/04/01 03:17:37;;;;;;;15.67;14.77;;;23.50;98.00;;;;;;3601476;39;20468;-35
2021/04/01 03:20:04;;;;;;;16.20;15.20;;;23.60;98.10;;;;;;3600566;39;20480;-35
2021/04/01 03:22:32;;;;;;;16.00;15.00;;;23.50;98.00;;;;;;3601553;39;20588;-35
2021/04/01 03:25:00;;;;;;;16.10;15.00;;;23.60;98.00;;;;;;3602769;39;20563;-35
2021/04/01 03:27:27;;;;;;;16.50;15.17;;;23.60;98.00;;;;;;3604267;39;20525;-35
2021/04/01 03:30:06;;;;;;;16.87;15.77;;;23.50;97.90;;;;;;3604192;39;20469;-35
2021/04/01 03:32:33;;;;;;;15.70;14.70;;;23.60;98.00;;;;;;3602378;39;20467;-36
2021/04/01 03:35:01;;;;;;;16.30;15.20;;;23.60;97.90;;;;;;3603238;39;20883;-35
2021/04/01 03:37:27;;;;;;;15.07;14.27;;;23.60;97.90;;;;;;3603746;39;20528;-35
2021/04/01 03:39:54;;;;;;;15.70;14.70;;;23.60;97.90;;;;;;3603272;39;20445;-35
2021/04/01 03:42:22;;;;;;;15.43;14.53;;;23.60;97.90;;;;;;3603799;39;20461;-35
2021/04/01 03:44:49;;;;;;;16.63;15.63;;;23.60;97.90;;;;;;3603513;39;20477;-35
2021/04/01 03:47:16;;;;;;;16.10;15.10;;;23.60;97.90;;;;;;3603203;39;20482;-35
2021/04/01 03:49:42;;;;;;;15.73;14.73;;;23.60;97.80;;;;;;3602484;39;20463;-35
2021/04/01 03:52:09;;;;;;;16.50;15.40;;;23.60;97.80;;;;;;3600835;39;20461;-35
2021/04/01 03:54:36;;;;;;;17.20;16.00;;;23.60;97.80;;;;;;3599699;39;20449;-35
2021/04/01 03:57:03;;;;;;;15.33;14.37;;;23.60;97.80;;;;;;3601713;39;20488;-35
2021/04/01 03:59:34;;;;;;;16.30;15.40;;;23.60;97.80;;;;;;3598012;39;20541;-35
2021/04/01 04:02:27;;;;;;;15.50;14.60;;;23.60;97.70;;;;;;3601104;39;20480;-35
2021/04/01 04:05:01;;;;;;;16.33;15.40;;;23.70;97.70;;;;;;3601069;39;20432;-35
2021/04/01 04:10:28;;;;;;;16.20;15.00;;;23.70;97.70;;;;;;3601853;39;20499;-35
2021/04/01 04:13:03;;;;;;;16.03;15.13;;;23.70;97.70;;;;;;3600203;39;20465;-35
2021/04/01 04:15:31;;;;;;;15.93;15.03;;;23.70;97.60;;;;;;3601860;39;20476;-36
2021/04/01 04:17:57;;;;;;;16.33;15.20;;;23.70;97.60;;;;;;3601759;39;20488;-36
2021/04/01 04:20:24;;;;;;;16.70;15.70;;;23.70;97.60;;;;;;3602425;39;20576;-35
2021/04/01 04:22:51;;;;;;;17.00;16.00;;;23.80;97.60;;;;;;3601508;39;20470;-36
2021/04/01 04:25:18;;;;;;;16.13;15.23;;;23.80;97.60;;;;;;3603101;39;20445;-35
2021/04/01 04:30:31;;;;;;;18.23;17.13;;;23.80;97.50;;;;;;3600895;39;20749;-35
2021/04/01 04:32:58;;;;;;;16.00;15.00;;;23.80;97.40;;;;;;3599773;39;20477;-35
2021/04/01 04:35:25;;;;;;;16.17;15.23;;;23.80;97.40;;;;;;3599445;39;20469;-35
2021/04/01 04:37:51;;;;;;;15.07;14.23;;;23.90;97.40;;;;;;3599458;39;20489;-35
2021/04/01 04:40:19;;;;;;;15.53;14.67;;;23.80;97.40;;;;;;3599451;39;20856;-36
2021/04/01 04:42:48;;;;;;;16.67;15.67;;;23.90;97.40;;;;;;3601085;39;20503;-35
2021/04/01 04:45:16;;;;;;;16.30;15.30;;;23.90;97.30;;;;;;3601269;39;20806;-35
2021/04/01 04:47:45;;;;;;;16.57;15.60;;;23.90;97.30;;;;;;3599241;39;20468;-35
2021/04/01 04:50:14;;;;;;;16.60;15.50;;;23.90;97.30;;;;;;3599947;39;20564;-35
2021/04/01 04:52:41;;;;;;;16.27;15.37;;;23.90;97.30;;;;;;3601624;39;20479;-35
2021/04/01 04:55:11;;;;;;;16.33;15.30;;;23.90;97.30;;;;;;3599865;39;20480;-35
2021/04/01 04:57:42;;;;;;;16.17;15.20;;;23.90;97.20;;;;;;3598665;39;20856;-35
2021/04/01 05:05:39;;;;;;;16.10;15.20;;;24.00;97.20;;;;;;3599062;39;20452;-35
2021/04/01 05:08:06;;;;;;;16.43;15.37;;;24.00;97.10;;;;;;3599339;39;20442;-35
2021/04/01 05:10:33;;;;;;;16.07;15.10;;;24.00;97.10;;;;;;3606468;39;20499;-35
2021/04/01 05:13:07;;;;;;;15.83;14.93;;;24.00;97.10;;;;;;3606701;39;20452;-35
2021/04/01 05:15:35;;;;;;;15.13;14.30;;;24.00;97.10;;;;;;3604509;39;20653;-35
2021/04/01 05:18:14;;;;;;;15.43;14.63;;;24.00;97.00;;;;;;3602984;39;20515;-35
2021/04/01 05:20:41;;;;;;;16.50;15.43;;;24.10;97.00;;;;;;3605206;39;20465;-35
2021/04/01 05:23:16;;;;;;;15.93;15.03;;;24.00;96.90;;;;;;3606922;39;20459;-35
2021/04/01 05:25:42;;;;;;;16.47;15.47;;;24.10;97.00;;;;;;3606034;39;20458;-35
2021/04/01 05:28:19;;;;;;;16.50;15.40;;;24.10;96.90;;;;;;3604076;39;20445;-35
2021/04/01 05:30:46;;;;;;;16.80;15.80;;;24.10;96.90;;;;;;3603257;39;20475;-34
2021/04/01 05:33:15;;;;;;;15.87;15.07;;;24.10;96.90;;;;;;3604424;39;20472;-35
2021/04/01 05:35:41;;;;;;;15.43;14.43;;;24.10;96.90;;;;;;3602622;39;20461;-35
2021/04/01 05:38:08;;;;;;;16.07;15.17;;;24.10;96.90;;;;;;3604013;39;20464;-35
2021/04/01 05:40:34;;;;;;;17.10;16.00;;;24.10;96.90;;;;;;3604894;39;20478;-35
2021/04/01 05:43:04;;;;;;;16.40;15.50;;;24.10;96.90;;;;;;3602099;39;20481;-35
2021/04/01 05:45:39;;;;;;;15.80;14.90;;;24.10;96.80;;;;;;3601021;39;20452;-35
2021/04/01 05:48:12;;;;;;;16.27;15.37;;;24.10;96.80;;;;;;3602694;39;20974;-34
2021/04/01 05:50:53;;;;;;;15.80;14.70;;;24.10;96.90;;;;;;3602917;39;20562;-35
2021/04/01 05:54:16;;;;;;;17.40;16.40;;;24.10;96.80;;;;;;3597976;39;20946;-35
2021/04/01 05:57:07;;;;;;;16.67;15.77;;;24.10;96.80;;;;;;3601627;39;20456;-35
2021/04/01 06:00:14;;;;;;;15.17;14.17;;;24.10;96.80;;;;;;3597859;39;20452;-35
2021/04/01 06:02:57;;;;;;;14.80;13.77;;;24.10;96.80;;;;;;3591573;39;20575;-35
2021/04/01 06:05:25;;;;;;;16.03;15.03;;;24.10;96.80;;;;;;3600216;39;20447;-34
2021/04/01 06:07:54;;;;;;;17.27;16.23;;;24.10;96.90;;;;;;3599517;39;20465;-35
2021/04/01 06:10:21;;;;;;;16.67;15.57;;;24.10;97.20;;;;;;3599197;39;20465;-35
2021/04/01 06:12:48;;;;;;;16.27;14.83;;;24.10;97.30;;;;;;3598090;39;20558;-35
2021/04/01 06:15:18;;;;;;;15.00;13.90;;;24.00;97.30;;;;;;3598288;39;20550;-35
2021/04/01 06:17:47;;;;;;;15.27;14.27;;;24.00;97.30;;;;;;3586799;39;20507;-35
2021/04/01 06:20:15;;;;;;;15.47;14.20;;;24.10;97.60;;;;;;3580706;39;20482;-35
2021/04/01 06:22:43;;;;;;;16.27;14.90;;;24.10;97.20;;;;;;3585304;39;20484;-35
2021/04/01 06:25:13;;;;;;;15.23;13.87;;;24.10;97.10;;;;;;3582264;39;20476;-35
2021/04/01 06:27:42;;;;;;;16.33;14.70;;;24.20;97.00;;;;;;3579484;39;20845;-35
2021/04/01 06:30:20;;;;;;;14.63;13.57;;;24.10;96.90;;;;;;3582259;39;21053;-35
2021/04/01 06:33:00;;;;;;;15.33;14.20;;;24.20;96.80;;;;;;3581950;39;20444;-34
2021/04/01 06:35:31;;;;;;;16.77;15.27;;;24.20;96.70;;;;;;3575715;39;20487;-35
2021/04/01 06:40:50;;;;;;;15.70;14.60;;;24.20;96.40;;;;;;3592886;39;20699;-35
2021/04/01 06:43:49;;;;;;;15.20;14.00;;;24.20;96.30;;;;;;3581035;39;20938;-34
2021/04/01 06:46:18;;;;;;;15.17;14.07;;;24.20;96.20;;;;;;3555358;39;20495;-34
2021/04/01 06:51:50;;;;;;;16.30;14.90;;;24.10;96.10;;;;;;3578808;39;20466;-33
2021/04/01 06:54:27;;;;;;;14.90;13.77;;;24.20;95.90;;;;;;3595207;39;20467;-35
2021/04/01 06:57:14;;;;;;;14.90;13.53;;;24.20;95.60;;;;;;3595126;39;20584;-35
2021/04/01 07:00:00;;;;;;;15.33;14.33;;;24.20;95.40;;;;;;3590017;39;20817;-35
2021/04/01 07:02:34;;;;;;;14.53;13.53;;;24.20;95.10;;;;;;3588094;39;20594;-34
2021/04/01 07:05:32;;;;;;;15.07;13.77;;;24.10;95.00;;;;;;3598763;39;20467;-35
2021/04/01 07:08:04;;;;;;;14.93;13.73;;;24.10;94.80;;;;;;3595042;39;20641;-35
2021/04/01 07:10:45;;;;;;;15.47;14.40;;;24.20;94.60;;;;;;3591481;39;20455;-34
2021/04/01 07:13:21;;;;;;;16.80;15.57;;;24.00;75.00;;;;;;3589616;39;20650;-34
2021/04/01 07:15:51;;;;;;;15.93;14.47;;;23.60;72.60;;;;;;3590186;39;20461;-35
2021/04/01 07:18:49;;;;;;;15.30;14.10;;;23.60;83.70;;;;;;3586918;39;20583;-34
2021/04/01 07:32:51;;;;;;;14.50;13.37;;;23.80;91.70;;;;;;3593433;39;20501;-35
2021/04/01 07:46:49;;;;;;;15.27;13.70;;;24.00;92.40;;;;;;3598581;39;20458;-35
2021/04/01 07:49:26;;;;;;;14.63;13.53;;;24.00;92.50;;;;;;3601089;39;20977;-35
2021/04/01 07:52:01;;;;;;;13.57;12.47;;;24.00;92.60;;;;;;3584457;39;20536;-35
2021/04/01 07:54:36;;;;;;;15.40;13.83;;;24.10;92.70;;;;;;3605221;39;20497;-34
2021/04/01 07:57:18;;;;;;;15.07;13.70;;;24.10;92.70;;;;;;3606396;39;20465;-35
2021/04/01 08:05:24;;;;;;;14.27;12.97;;;24.10;92.90;;;;;;3604708;39;21251;-34
2021/04/01 08:07:56;;;;;;;15.13;13.83;;;24.10;93.00;;;;;;3597318;39;20462;-34
2021/04/01 08:10:26;;;;;;;14.67;13.60;;;24.10;93.00;;;;;;3600385;39;20623;-34
2021/04/01 08:13:07;;;;;;;13.60;12.83;;;24.10;93.10;;;;;;3600958;39;20488;-35
2021/04/01 08:15:38;;;;;;;14.77;13.50;;;24.10;93.20;;;;;;3599938;39;20457;-35
2021/04/01 08:20:58;;;;;;;13.63;12.73;;;24.10;93.30;;;;;;3592543;39;20566;-36
2021/04/01 08:23:30;;;;;;;14.27;13.37;;;24.20;93.40;;;;;;3595781;39;20843;-35
2021/04/01 08:26:15;;;;;;;13.60;12.73;;;24.10;93.40;;;;;;3607210;39;20470;-36
2021/04/01 08:34:19;;;;;;;14.63;13.43;;;24.20;93.60;;;;;;3593030;39;20574;-35
2021/04/01 08:36:47;;;;;;;14.57;13.37;;;24.10;93.60;;;;;;3599819;39;20563;-35
2021/04/01 08:39:16;;;;;;;14.57;13.30;;;24.10;93.60;;;;;;3602698;39;20506;-36
2021/04/01 08:42:19;;;;;;;13.90;13.10;;;24.20;93.70;;;;;;3606670;39;20423;-35
2021/04/01 08:45:07;;;;;;;15.83;14.47;;;24.20;93.90;;;;;;3599933;39;20447;-35
2021/04/01 08:47:49;;;;;;;14.37;13.37;;;24.20;93.90;;;;;;3598581;39;20477;-35
2021/04/01 08:50:29;;;;;;;14.13;13.03;;;24.10;94.00;;;;;;3605002;39;21163;-36
2021/04/01 08:53:12;;;;;;;14.13;13.00;;;24.10;94.00;;;;;;3604654;39;20559;-34
2021/04/01 08:55:40;;;;;;;14.37;13.13;;;24.10;94.10;;;;;;3602529;39;20556;-36
2021/04/01 08:58:29;;;;;;;14.20;13.00;;;24.20;94.20;;;;;;3598065;39;20467;-36
2021/04/01 09:01:13;;;;;;;14.57;13.37;;;24.10;94.20;;;;;;3599636;39;20467;-34
2021/04/01 09:03:43;;;;;;;13.87;12.47;;;24.10;94.20;;;;;;3600473;39;20481;-35
2021/04/01 09:06:15;;;;;;;14.80;13.40;;;24.20;94.30;;;;;;3592308;39;20459;-35
2021/04/01 09:08:48;;;;;;;14.40;13.07;;;24.10;94.30;;;;;;3603630;39;21186;-35
2021/04/01 09:11:17;;;;;;;15.13;13.77;;;24.20;94.40;;;;;;3603201;39;20458;-34
2021/04/01 09:13:54;;;;;;;14.20;12.90;;;24.10;94.30;;;;;;3603431;39;21010;-36
2021/04/01 09:16:26;;;;;;;14.63;13.33;;;24.10;94.40;;;;;;3596065;39;20623;-35
2021/04/01 09:19:01;;;;;;;15.17;13.80;;;24.10;94.40;;;;;;3594965;39;21257;-35
2021/04/01 09:21:33;;;;;;;14.50;13.30;;;24.10;94.40;;;;;;3603597;39;20448;-34
2021/04/01 09:24:00;;;;;;;14.97;13.60;;;24.10;94.40;;;;;;3603122;39;20454;-35
2021/04/01 09:26:27;;;;;;;14.30;13.10;;;24.10;94.30;;;;;;3606110;39;21477;-34
2021/04/01 09:29:07;;;;;;;13.80;12.70;;;24.10;94.30;;;;;;3599152;39;20557;-35
2021/04/01 09:31:43;;;;;;;14.40;12.93;;;24.10;94.30;;;;;;3595824;39;20577;-36
2021/04/01 09:34:13;;;;;;;14.90;13.47;;;24.10;94.30;;;;;;3604152;39;20513;-34
2021/04/01 09:36:43;;;;;;;13.50;12.53;;;24.00;94.20;;;;;;3602166;39;20491;-35
2021/04/01 09:39:25;;;;;;;14.03;12.83;;;24.10;94.30;;;;;;3595052;39;20549;-35
2021/04/01 09:41:57;;;;;;;14.30;12.93;;;24.10;94.20;;;;;;3595426;39;20588;-34
2021/04/01 09:44:26;;;;;;;15.33;14.00;;;24.00;94.20;;;;;;3599813;39;20467;-35
2021/04/01 09:47:02;;;;;;;14.40;13.10;;;24.10;94.20;;;;;;3603301;39;20467;-35
2021/04/01 09:49:35;;;;;;;14.90;13.80;;;24.00;94.20;;;;;;3602595;39;21156;-35
2021/04/01 09:52:06;;;;;;;13.63;12.73;;;24.00;94.20;;;;;;3596209;39;20464;-35
2021/04/01 09:54:36;;;;;;;13.27;12.00;;;24.00;94.20;;;;;;3594154;39;20948;-35
2021/04/01 09:57:04;;;;;;;14.20;13.20;;;24.00;94.20;;;;;;3602735;39;20444;-35
2021/04/01 09:59:46;;;;;;;16.00;14.47;;;24.00;94.20;;;;;;3592074;39;20537;-36
2021/04/01 10:02:24;;;;;;;17.20;13.20;;;24.00;94.20;;;;;;3596873;39;20688;-35
2021/04/01 10:04:58;;;;;;;13.23;12.23;;;24.00;94.20;;;;;;3602956;39;20948;-35
2021/04/01 10:07:31;;;;;;;14.77;13.70;;;24.00;94.20;;;;;;3604519;39;20578;-36
2021/04/01 10:10:00;;;;;;;12.77;12.07;;;24.10;94.20;;;;;;3600750;39;20460;-35
2021/04/01 10:12:38;;;;;;;14.80;13.40;;;24.00;94.10;;;;;;3582999;39;20591;-35
2021/04/01 10:15:10;;;;;;;13.53;12.30;;;24.00;94.20;;;;;;3597592;39;20483;-35
2021/04/01 10:17:39;;;;;;;14.43;13.00;;;24.10;94.30;;;;;;3597869;39;20464;-35
2021/04/01 10:20:08;;;;;;;15.03;13.77;;;24.10;94.30;;;;;;3602427;39;20720;-35
2021/04/01 10:22:39;;;;;;;13.40;12.37;;;24.10;94.50;;;;;;3605290;39;20478;-34
2021/04/01 10:25:13;;;;;;;13.93;12.90;;;24.00;94.30;;;;;;3595112;39;20887;-35
2021/04/01 10:27:47;;;;;;;13.40;12.17;;;24.10;94.40;;;;;;3597374;39;20444;-35
2021/04/01 10:30:16;;;;;;;13.87;12.50;;;24.00;94.40;;;;;;3597931;39;20448;-35
2021/04/01 10:32:51;;;;;;;13.47;12.27;;;24.10;94.50;;;;;;3599565;39;21062;-35
2021/04/01 10:35:24;;;;;;;13.00;11.90;;;24.00;94.50;;;;;;3592563;39;20475;-35
2021/04/01 10:37:55;;;;;;;13.70;12.57;;;24.00;94.60;;;;;;3601001;39;20480;-34
2021/04/01 10:40:22;;;;;;;13.90;12.80;;;24.00;94.60;;;;;;3602037;39;20490;-35
2021/04/01 10:42:57;;;;;;;12.73;11.80;;;24.00;94.70;;;;;;3603957;39;21307;-34
2021/04/01 10:45:24;;;;;;;17.10;13.13;;;24.00;94.80;;;;;;3601917;39;20475;-35
2021/04/01 10:47:58;;;;;;;12.87;11.83;;;24.00;94.80;;;;;;3597362;39;20588;-35
2021/04/01 10:50:28;;;;;;;13.87;12.83;;;23.90;94.90;;;;;;3589009;39;20455;-34
2021/04/01 10:52:58;;;;;;;14.10;13.20;;;24.00;94.90;;;;;;3599617;39;20488;-35
2021/04/01 10:55:27;;;;;;;14.03;12.63;;;23.90;94.90;;;;;;3587976;39;20599;-35
2021/04/01 10:57:56;;;;;;;13.53;12.53;;;23.90;94.90;;;;;;3597038;39;20467;-35
2021/04/01 11:00:25;;;;;;;13.63;12.63;;;23.90;95.00;;;;;;3601462;39;20482;-35
2021/04/01 11:02:57;;;;;;;13.73;12.67;;;23.90;95.00;;;;;;3606394;39;20471;-35
2021/04/01 11:05:26;;;;;;;15.10;13.77;;;23.90;95.00;;;;;;3605552;39;20507;-35
2021/04/01 11:08:05;;;;;;;13.73;12.60;;;23.90;95.00;;;;;;3606880;39;20475;-35
2021/04/01 11:10:33;;;;;;;13.73;12.67;;;23.90;95.10;;;;;;3607310;39;20498;-35
2021/04/01 11:13:02;;;;;;;14.17;13.13;;;23.90;95.10;;;;;;3600391;39;20459;-35
2021/04/01 11:15:32;;;;;;;14.40;13.03;;;23.90;95.10;;;;;;3606390;39;20452;-35
2021/04/01 11:18:02;;;;;;;13.97;12.97;;;23.90;95.20;;;;;;3605838;39;20867;-35
2021/04/01 11:20:32;;;;;;;14.40;12.80;;;23.90;95.20;;;;;;3602599;39;20583;-35
2021/04/01 11:23:05;;;;;;;13.80;13.00;;;23.90;95.20;;;;;;3598858;39;20850;-35
2021/04/01 11:25:31;;;;;;;13.73;12.60;;;23.90;95.30;;;;;;3607114;39;20499;-35
2021/04/01 11:27:58;;;;;;;13.83;12.93;;;23.90;95.30;;;;;;3601067;39;20618;-34
2021/04/01 11:30:45;;;;;;;14.00;12.83;;;23.90;95.30;;;;;;3596051;39;20458;-35
2021/04/01 11:33:14;;;;;;;13.90;13.10;;;23.90;95.30;;;;;;3599966;39;20816;-35
2021/04/01 11:35:43;;;;;;;13.83;12.70;;;23.90;95.30;;;;;;3599647;39;20500;-35
2021/04/01 11:38:21;;;;;;;14.10;12.73;;;23.90;95.30;;;;;;3603786;39;20797;-35
2021/04/01 11:40:57;;;;;;;13.87;12.70;;;23.90;95.50;;;;;;3606031;39;20461;-35
2021/04/01 11:43:26;;;;;;;14.33;13.13;;;23.90;95.40;;;;;;3604764;39;21088;-35
2021/04/01 11:45:54;;;;;;;13.70;12.67;;;23.90;95.40;;;;;;3606368;39;20496;-35
2021/04/01 11:48:26;;;;;;;14.40;13.30;;;23.90;95.40;;;;;;3604979;39;20466;-35
2021/04/01 11:50:53;;;;;;;14.73;13.60;;;23.90;95.40;;;;;;3603661;39;20473;-35
2021/04/01 11:53:22;;;;;;;13.30;12.47;;;23.90;95.40;;;;;;3597451;39;20491;-35
2021/04/01 11:55:53;;;;;;;13.00;12.20;;;23.90;95.50;;;;;;3603887;39;20873;-35
2021/04/01 11:58:22;;;;;;;15.07;13.60;;;23.90;95.50;;;;;;3606797;39;20558;-35
2021/04/01 12:00:51;;;;;;;13.97;12.70;;;23.90;95.60;;;;;;3597831;39;20666;-35
2021/04/01 12:03:23;;;;;;;14.23;13.13;;;23.90;95.60;;;;;;3583270;39;20466;-35
2021/04/01 12:05:52;;;;;;;13.70;12.70;;;23.90;95.70;;;;;;3596352;39;20495;-35
2021/04/01 12:08:20;;;;;;;14.43;12.87;;;23.90;95.70;;;;;;3599526;39;20486;-34
2021/04/01 12:10:55;;;;;;;13.50;12.60;;;23.90;96.10;;;;;;3595927;39;20478;-35
2021/04/01 12:13:24;;;;;;;15.37;14.17;;;23.90;95.80;;;;;;3589946;39;20478;-35
2021/04/01 12:15:53;;;;;;;13.50;12.70;;;23.90;95.80;;;;;;3591637;39;20475;-35
2021/04/01 12:18:20;;;;;;;13.60;12.70;;;23.90;95.90;;;;;;3596136;39;20474;-35
2021/04/01 12:20:50;;;;;;;13.60;12.40;;;23.90;95.90;;;;;;3606463;39;20685;-34
2021/04/01 12:23:20;;;;;;;13.97;12.97;;;23.90;96.00;;;;;;3594014;39;20469;-35
2021/04/01 12:25:49;;;;;;;15.07;13.87;;;23.90;96.00;;;;;;3599325;39;20471;-35
2021/04/01 12:28:25;;;;;;;14.23;13.33;;;23.90;96.10;;;;;;3603215;39;20976;-34
2021/04/01 12:30:53;;;;;;;14.83;14.13;;;23.90;96.10;;;;;;3607692;39;20838;-34
2021/04/01 12:33:25;;;;;;;14.67;13.53;;;23.90;96.10;;;;;;3592625;39;20469;-35
2021/04/01 12:36:00;;;;;;;13.40;12.40;;;23.90;96.20;;;;;;3600936;39;20480;-35
2021/04/01 12:38:30;;;;;;;14.33;13.33;;;23.90;96.20;;;;;;3601348;39;20486;-35
2021/04/01 12:40:58;;;;;;;13.60;12.77;;;23.90;96.20;;;;;;3601524;39;20709;-35
2021/04/01 12:43:34;;;;;;;13.17;12.17;;;23.90;96.20;;;;;;3602787;39;20458;-34
2021/04/01 12:46:03;;;;;;;12.60;11.90;;;23.90;96.30;;;;;;3597886;39;21031;-33
2021/04/01 12:48:38;;;;;;;13.97;12.67;;;23.90;96.30;;;;;;3594290;39;20468;-35
2021/04/01 12:51:07;;;;;;;12.77;11.80;;;23.90;96.30;;;;;;3596128;39;20512;-34
2021/04/01 12:53:36;;;;;;;13.23;12.40;;;23.90;96.40;;;;;;3589408;39;20501;-35
2021/04/01 12:56:11;;;;;;;12.93;12.03;;;23.90;96.40;;;;;;3601347;39;20478;-34
2021/04/01 12:58:42;;;;;;;12.53;11.73;;;23.90;96.40;;;;;;3597332;39;20460;-35
2021/04/01 13:01:16;;;;;;;13.77;12.73;;;23.90;96.40;;;;;;3599507;39;20459;-35
2021/04/01 13:03:44;;;;;;;13.70;12.80;;;23.90;96.50;;;;;;3598349;39;20566;-35
2021/04/01 13:06:12;;;;;;;12.53;11.83;;;23.90;96.50;;;;;;3599704;39;20571;-35
2021/04/01 13:11:24;;;;;;;13.40;12.10;;;23.90;96.50;;;;;;3594010;39;20793;-33
2021/04/01 13:13:52;;;;;;;13.27;12.47;;;23.90;96.60;;;;;;3601943;39;21429;-35
2021/04/01 13:16:20;;;;;;;14.57;13.27;;;23.90;96.60;;;;;;3602460;39;20494;-35
2021/04/01 13:18:47;;;;;;;12.80;12.00;;;23.90;96.60;;;;;;3593072;39;20503;-35
2021/04/01 13:21:29;;;;;;;12.47;11.57;;;23.90;96.70;;;;;;3593405;39;21252;-35
2021/04/01 13:24:04;;;;;;;12.50;11.70;;;23.90;96.70;;;;;;3604236;39;20554;-35
2021/04/01 13:26:33;;;;;;;13.63;12.50;;;23.90;96.60;;;;;;3591702;39;20941;-35
2021/04/01 13:29:02;;;;;;;13.53;12.13;;;23.90;96.60;;;;;;3594402;39;20563;-35
2021/04/01 13:31:49;;;;;;;12.97;11.80;;;23.80;96.60;;;;;;3584862;39;20452;-35
2021/04/01 13:34:21;;;;;;;13.23;12.37;;;23.80;96.60;;;;;;3605995;39;20442;-36
2021/04/01 13:36:52;;;;;;;12.97;12.17;;;23.90;96.60;;;;;;3590802;39;21219;-35
2021/04/01 13:39:24;;;;;;;13.60;12.30;;;23.90;96.60;;;;;;3603963;39;20495;-35
2021/04/01 13:44:40;;;;;;;13.00;12.23;;;23.90;96.60;;;;;;3601210;39;20586;-35
2021/04/01 13:47:09;;;;;;;14.93;13.70;;;23.90;96.50;;;;;;3604481;39;21250;-35